X  Fechar Dados meteorológicos de METAR da aviação     EIDW Dublin Airport
Temperatura
12°C Temperatura
10°C Ponto de orvalho
88% Umidade



Vento
19 KM/H
12 MPH
5 M/S
10 NÓS



200°
SSO
Condições atuais

Nuvens esparsas Nuvens esparsas
Pressão 996.92 (hPa) - 29.44 (inHg)
Visibilidade 6.2 (milha) - 10 (km)
Aeroporto
Código do aeroporto EIDW

Localização: Dublin Airport
Distância: 17 (km)

Metar:
EIDW 260700Z 20010KT 100V260 9999 SCT014 BKN030 12/10 Q0997 NOSIG

Hora: 26-06-2022 08:00 IST